Time;durP1;ratioP1;P1;durP2;ratioP2;P2;SDS_P1;SDS_P2;PMS_P1;PMS_P2;Temp;Humidity;BMP_temperature;BMP_pressure;BME280_temperature;BME280_humidity;BME280_pressure;Samples;Min_cycle;Max_cycle;Signal;HPM_P1;HPM_P2
2023/12/15 00:02:00;;;;;;;5.60;3.97;;;;;;;;;;773283;181;895077;-70
2023/12/15 00:04:26;;;;;;;7.82;5.50;;;;;;;;;;777710;180;919356;-63
2023/12/15 00:06:52;;;;;;;9.43;4.63;;;;;;;;;;761958;181;919514;-63
2023/12/15 00:09:18;;;;;;;7.20;4.40;;;;;;;;;;770486;180;920679;-71
2023/12/15 00:11:43;;;;;;;3.63;2.40;;;;;;;;;;778448;180;915202;-63
2023/12/15 00:14:09;;;;;;;8.43;5.17;;;;;;;;;;772111;178;915468;-71
2023/12/15 00:16:35;;;;;;;6.53;4.67;;;;;;;;;;770673;180;917247;-63
2023/12/15 00:19:01;;;;;;;4.60;3.33;;;;;;;;;;771204;180;919740;-70
2023/12/15 00:21:27;;;;;;;6.93;4.53;;;;;;;;;;770181;180;916092;-71
2023/12/15 00:23:53;;;;;;;8.03;5.13;;;;;;;;;;773164;180;918249;-73
2023/12/15 00:26:19;;;;;;;6.30;4.10;;;;;;;;;;768857;180;919599;-71
2023/12/15 00:28:44;;;;;;;6.23;3.97;;;;;;;;;;776572;180;881519;-63
2023/12/15 00:31:10;;;;;;;8.07;5.00;;;;;;;;;;775512;180;923438;-69
2023/12/15 00:33:36;;;;;;;8.97;5.07;;;;;;;;;;771794;180;818529;-71
2023/12/15 00:36:02;;;;;;;7.00;5.03;;;;;;;;;;769948;181;919044;-63
2023/12/15 00:38:28;;;;;;;8.43;5.30;;;;;;;;;;773650;180;925633;-71
2023/12/15 00:40:54;;;;;;;10.13;6.50;;;;;;;;;;764146;178;918808;-62
2023/12/15 00:43:20;;;;;;;11.88;6.00;;;;;;;;;;772402;181;918878;-69
2023/12/15 00:45:45;;;;;;;10.10;5.47;;;;;;;;;;771254;180;919179;-70
2023/12/15 00:48:11;;;;;;;15.90;7.80;;;;;;;;;;769469;179;816356;-63
2023/12/15 00:50:37;;;;;;;12.00;6.60;;;;;;;;;;771167;180;918583;-70
2023/12/15 00:53:03;;;;;;;13.53;7.90;;;;;;;;;;778046;180;821630;-71
2023/12/15 00:55:29;;;;;;;8.37;4.67;;;;;;;;;;773737;181;918441;-63
2023/12/15 00:57:55;;;;;;;16.93;8.37;;;;;;;;;;766454;180;815897;-63
2023/12/15 01:00:20;;;;;;;12.60;6.70;;;;;;;;;;781464;180;817711;-63
2023/12/15 01:02:46;;;;;;;12.80;7.57;;;;;;;;;;774927;177;911542;-71
2023/12/15 01:05:12;;;;;;;15.45;8.25;;;;;;;;;;772792;180;915901;-70
2023/12/15 01:07:38;;;;;;;19.43;9.10;;;;;;;;;;775741;180;918729;-69
2023/12/15 01:10:04;;;;;;;11.60;6.67;;;;;;;;;;770924;180;919486;-63
2023/12/15 01:12:30;;;;;;;13.90;6.90;;;;;;;;;;769229;180;920554;-63
2023/12/15 01:14:56;;;;;;;17.63;8.50;;;;;;;;;;770214;180;917778;-63
2023/12/15 01:17:21;;;;;;;15.13;7.40;;;;;;;;;;778263;180;818122;-63
2023/12/15 01:19:47;;;;;;;16.27;8.50;;;;;;;;;;770665;179;922264;-63
2023/12/15 01:22:13;;;;;;;15.93;9.20;;;;;;;;;;775076;181;815987;-64
2023/12/15 01:24:39;;;;;;;22.20;12.13;;;;;;;;;;774894;178;919555;-70
2023/12/15 01:27:05;;;;;;;25.07;9.83;;;;;;;;;;773772;180;820733;-70
2023/12/15 01:29:31;;;;;;;18.30;8.40;;;;;;;;;;776564;180;917944;-70
2023/12/15 01:31:56;;;;;;;17.73;9.80;;;;;;;;;;766314;180;917181;-63
2023/12/15 01:34:22;;;;;;;15.77;12.40;;;;;;;;;;759608;180;1044707;-64
2023/12/15 01:36:48;;;;;;;17.13;8.97;;;;;;;;;;772310;180;917850;-70
2023/12/15 01:39:14;;;;;;;18.80;10.63;;;;;;;;;;779219;180;818773;-70
2023/12/15 01:41:40;;;;;;;21.03;11.03;;;;;;;;;;774004;177;916307;-72
2023/12/15 01:44:06;;;;;;;18.37;10.10;;;;;;;;;;774916;177;920299;-72
2023/12/15 01:46:31;;;;;;;19.90;9.83;;;;;;;;;;775424;179;919694;-65
2023/12/15 01:48:57;;;;;;;23.23;10.87;;;;;;;;;;773896;180;919129;-70
2023/12/15 01:51:23;;;;;;;18.33;9.10;;;;;;;;;;771589;179;917803;-65
2023/12/15 01:53:49;;;;;;;18.57;6.70;;;;;;;;;;774165;177;916580;-64
2023/12/15 01:56:15;;;;;;;23.80;10.93;;;;;;;;;;779640;177;918888;-70
2023/12/15 01:58:41;;;;;;;23.30;10.40;;;;;;;;;;772064;177;904191;-63
2023/12/15 02:01:06;;;;;;;19.30;9.57;;;;;;;;;;770186;178;924367;-71
2023/12/15 02:03:32;;;;;;;17.17;10.37;;;;;;;;;;777657;178;918575;-64
2023/12/15 02:05:58;;;;;;;28.43;11.83;;;;;;;;;;770926;178;919039;-71
2023/12/15 02:08:24;;;;;;;17.17;8.70;;;;;;;;;;773814;180;918922;-70
2023/12/15 02:10:50;;;;;;;14.40;8.70;;;;;;;;;;764657;180;1035404;-65
2023/12/15 02:13:16;;;;;;;26.30;12.57;;;;;;;;;;778956;178;921272;-64
2023/12/15 02:15:42;;;;;;;25.83;12.63;;;;;;;;;;769350;178;920061;-71
2023/12/15 02:18:08;;;;;;;27.17;13.35;;;;;;;;;;769929;180;1026387;-64
2023/12/15 02:20:33;;;;;;;13.73;8.10;;;;;;;;;;778228;180;869290;-64
2023/12/15 02:22:59;;;;;;;26.73;13.07;;;;;;;;;;769265;178;911385;-65
2023/12/15 02:25:25;;;;;;;31.90;15.60;;;;;;;;;;769619;179;1019027;-71
2023/12/15 02:27:51;;;;;;;29.07;13.73;;;;;;;;;;777712;180;918541;-70
2023/12/15 02:30:17;;;;;;;26.27;12.93;;;;;;;;;;774260;180;920675;-64
2023/12/15 02:32:43;;;;;;;25.73;13.20;;;;;;;;;;773267;180;930283;-64
2023/12/15 02:35:11;;;;;;;22.73;12.50;;;;;;;;;;777016;180;920253;-70
2023/12/15 02:37:34;;;;;;;21.10;10.40;;;;;;;;;;774285;177;934556;-70
2023/12/15 02:40:00;;;;;;;16.37;8.67;;;;;;;;;;770562;178;820125;-64
2023/12/15 02:42:26;;;;;;;16.27;9.63;;;;;;;;;;769038;180;1013436;-64
2023/12/15 02:44:52;;;;;;;17.57;9.40;;;;;;;;;;778314;180;919320;-63
2023/12/15 02:47:18;;;;;;;19.70;9.43;;;;;;;;;;773437;178;914790;-71
2023/12/15 02:49:44;;;;;;;13.20;6.07;;;;;;;;;;773275;180;814026;-71
2023/12/15 02:52:10;;;;;;;14.37;8.83;;;;;;;;;;767548;181;917742;-70
2023/12/15 02:54:35;;;;;;;13.10;9.57;;;;;;;;;;766225;180;713672;-70
2023/12/15 02:57:01;;;;;;;10.60;6.97;;;;;;;;;;767959;180;900961;-64
2023/12/15 02:59:27;;;;;;;11.03;7.30;;;;;;;;;;777755;180;914952;-63
2023/12/15 03:01:53;;;;;;;16.33;9.87;;;;;;;;;;773022;177;862430;-71
2023/12/15 03:04:19;;;;;;;21.87;10.90;;;;;;;;;;773984;180;919418;-65
2023/12/15 03:06:45;;;;;;;18.90;10.32;;;;;;;;;;773104;179;919218;-70
2023/12/15 03:09:11;;;;;;;17.20;8.83;;;;;;;;;;745425;184;918688;-71
2023/12/15 03:11:36;;;;;;;10.52;5.62;;;;;;;;;;767553;181;917397;-64
2023/12/15 03:14:02;;;;;;;27.33;10.20;;;;;;;;;;768438;180;918256;-63
2023/12/15 03:16:28;;;;;;;16.77;10.20;;;;;;;;;;777607;180;915703;-70
2023/12/15 03:18:54;;;;;;;20.47;10.60;;;;;;;;;;773495;178;941080;-70
2023/12/15 03:21:20;;;;;;;18.33;8.70;;;;;;;;;;772647;178;916328;-63
2023/12/15 03:23:45;;;;;;;16.75;8.48;;;;;;;;;;768698;181;822368;-70
2023/12/15 03:26:11;;;;;;;14.83;8.90;;;;;;;;;;766301;180;946703;-63
2023/12/15 03:28:38;;;;;;;22.52;11.43;;;;;;;;;;771725;180;918349;-70
2023/12/15 03:31:04;;;;;;;18.50;10.77;;;;;;;;;;778441;180;903449;-64
2023/12/15 03:33:33;;;;;;;16.83;8.43;;;;;;;;;;769481;180;919258;-63
2023/12/15 03:35:59;;;;;;;30.27;7.60;;;;;;;;;;763605;180;1022036;-70
2023/12/15 03:38:25;;;;;;;16.40;10.87;;;;;;;;;;771689;178;918480;-71
2023/12/15 03:40:50;;;;;;;19.13;10.60;;;;;;;;;;779113;180;919318;-63
2023/12/15 03:43:16;;;;;;;16.80;10.27;;;;;;;;;;765336;180;918872;-69
2023/12/15 03:45:42;;;;;;;19.80;11.30;;;;;;;;;;768821;181;1021991;-63
2023/12/15 03:48:08;;;;;;;18.27;10.90;;;;;;;;;;776643;180;918905;-70
2023/12/15 03:50:34;;;;;;;17.60;8.40;;;;;;;;;;773143;180;920404;-62
2023/12/15 03:53:00;;;;;;;22.40;14.57;;;;;;;;;;772020;180;944898;-62
2023/12/15 03:55:26;;;;;;;27.00;14.70;;;;;;;;;;773721;177;920421;-63
2023/12/15 03:57:51;;;;;;;18.53;10.67;;;;;;;;;;775145;180;818467;-68
2023/12/15 04:00:20;;;;;;;23.77;13.40;;;;;;;;;;768992;180;962310;-62
2023/12/15 04:02:43;;;;;;;19.27;9.60;;;;;;;;;;760514;181;919128;-62
2023/12/15 04:05:09;;;;;;;17.90;10.37;;;;;;;;;;777788;179;920274;-62
2023/12/15 04:07:35;;;;;;;21.30;10.67;;;;;;;;;;771500;179;818699;-70
2023/12/15 04:10:01;;;;;;;19.60;12.00;;;;;;;;;;772380;178;905780;-69
2023/12/15 04:12:26;;;;;;;21.37;12.97;;;;;;;;;;775153;180;916497;-69
2023/12/15 04:14:52;;;;;;;29.43;13.60;;;;;;;;;;775190;180;929220;-69
2023/12/15 04:17:18;;;;;;;30.55;13.82;;;;;;;;;;774642;177;917399;-69
2023/12/15 04:19:44;;;;;;;32.73;15.80;;;;;;;;;;778741;178;918210;-62
2023/12/15 04:22:10;;;;;;;27.97;13.03;;;;;;;;;;775357;180;918786;-63
2023/12/15 04:24:36;;;;;;;34.57;16.10;;;;;;;;;;772023;180;918651;-70
2023/12/15 04:27:02;;;;;;;41.23;19.50;;;;;;;;;;772350;180;919458;-68
2023/12/15 04:29:27;;;;;;;41.70;20.20;;;;;;;;;;779431;177;918859;-69
2023/12/15 04:31:53;;;;;;;29.63;16.17;;;;;;;;;;773891;178;913484;-62
2023/12/15 04:34:19;;;;;;;68.60;29.63;;;;;;;;;;754149;181;919566;-69
2023/12/15 04:36:45;;;;;;;34.13;16.90;;;;;;;;;;779332;180;910142;-63
2023/12/15 04:39:11;;;;;;;26.50;14.13;;;;;;;;;;766780;180;917519;-62
2023/12/15 04:41:37;;;;;;;26.33;14.43;;;;;;;;;;772074;179;914275;-62
2023/12/15 04:44:02;;;;;;;19.13;10.60;;;;;;;;;;773827;178;917363;-61
2023/12/15 04:46:28;;;;;;;19.70;10.03;;;;;;;;;;766348;181;919224;-62
2023/12/15 04:48:54;;;;;;;14.13;7.70;;;;;;;;;;769706;177;919596;-62
2023/12/15 04:51:20;;;;;;;28.55;11.75;;;;;;;;;;774393;178;918951;-62
2023/12/15 04:53:46;;;;;;;14.53;9.40;;;;;;;;;;768752;181;817888;-62
2023/12/15 04:56:12;;;;;;;21.57;10.87;;;;;;;;;;763489;180;819063;-69
2023/12/15 04:58:38;;;;;;;18.90;13.30;;;;;;;;;;770356;178;922864;-69
2023/12/15 05:01:04;;;;;;;23.00;12.70;;;;;;;;;;778653;177;915584;-62
2023/12/15 05:03:30;;;;;;;20.57;10.90;;;;;;;;;;772722;180;917144;-62
2023/12/15 05:05:55;;;;;;;18.35;10.77;;;;;;;;;;771205;180;1019799;-70
2023/12/15 05:08:21;;;;;;;20.30;11.33;;;;;;;;;;777643;180;816757;-62
2023/12/15 05:10:47;;;;;;;17.17;10.93;;;;;;;;;;773847;180;918758;-63
2023/12/15 05:13:13;;;;;;;19.20;10.27;;;;;;;;;;775048;180;919426;-69
2023/12/15 05:15:39;;;;;;;20.83;11.70;;;;;;;;;;770849;178;861804;-69
2023/12/15 05:18:05;;;;;;;22.37;13.73;;;;;;;;;;772230;180;919864;-69
2023/12/15 05:20:30;;;;;;;25.80;13.00;;;;;;;;;;775490;179;917915;-68
2023/12/15 05:22:56;;;;;;;20.83;13.07;;;;;;;;;;772892;177;919027;-62
2023/12/15 05:25:22;;;;;;;26.10;12.20;;;;;;;;;;776714;180;918076;-69
2023/12/15 05:27:48;;;;;;;12.90;7.80;;;;;;;;;;770995;177;899411;-69
2023/12/15 05:30:14;;;;;;;24.40;15.37;;;;;;;;;;762606;181;872835;-62
2023/12/15 05:32:40;;;;;;;25.20;11.47;;;;;;;;;;775073;180;919928;-69
2023/12/15 05:35:06;;;;;;;15.47;8.77;;;;;;;;;;776913;180;816684;-63
2023/12/15 05:37:31;;;;;;;16.90;11.00;;;;;;;;;;775478;178;926743;-62
2023/12/15 05:39:57;;;;;;;23.33;13.40;;;;;;;;;;775189;178;818471;-69
2023/12/15 05:42:23;;;;;;;26.77;13.60;;;;;;;;;;766458;180;815755;-62
2023/12/15 05:44:49;;;;;;;26.40;15.20;;;;;;;;;;769254;180;917457;-69
2023/12/15 05:47:15;;;;;;;34.83;16.07;;;;;;;;;;767015;179;917648;-63
2023/12/15 05:49:41;;;;;;;33.43;17.30;;;;;;;;;;772132;180;630207;-62
2023/12/15 05:52:08;;;;;;;28.70;15.83;;;;;;;;;;770026;180;633604;-69
2023/12/15 05:54:32;;;;;;;37.07;19.63;;;;;;;;;;775079;180;623098;-63
2023/12/15 05:56:58;;;;;;;27.07;14.60;;;;;;;;;;780829;180;629703;-62
2023/12/15 05:59:24;;;;;;;25.50;15.73;;;;;;;;;;773744;180;618877;-62
2023/12/15 06:01:50;;;;;;;20.57;10.83;;;;;;;;;;772023;181;919607;-68
2023/12/15 06:04:16;;;;;;;60.70;28.17;;;;;;;;;;777170;179;825112;-69
2023/12/15 06:06:42;;;;;;;29.07;19.00;;;;;;;;;;769368;180;917353;-62
2023/12/15 06:09:09;;;;;;;29.33;19.50;;;;;;;;;;774112;179;810655;-62
2023/12/15 06:11:33;;;;;;;26.63;16.70;;;;;;;;;;779108;180;618718;-62
2023/12/15 06:13:59;;;;;;;32.97;16.90;;;;;;;;;;772836;180;917981;-62
2023/12/15 06:16:25;;;;;;;24.87;12.50;;;;;;;;;;766003;180;919702;-62
2023/12/15 06:18:51;;;;;;;31.30;16.87;;;;;;;;;;772580;180;897222;-62
2023/12/15 06:21:20;;;;;;;26.43;15.83;;;;;;;;;;781225;178;704810;-69
2023/12/15 06:23:45;;;;;;;26.67;15.80;;;;;;;;;;771025;180;630827;-70
2023/12/15 06:26:11;;;;;;;23.83;14.23;;;;;;;;;;774733;179;715285;-68
2023/12/15 06:28:37;;;;;;;34.13;18.90;;;;;;;;;;771954;180;736463;-61
2023/12/15 06:31:03;;;;;;;46.67;25.83;;;;;;;;;;776445;177;818303;-68
2023/12/15 06:33:29;;;;;;;27.43;16.10;;;;;;;;;;775629;177;935473;-63
2023/12/15 06:35:55;;;;;;;28.55;17.08;;;;;;;;;;760628;181;919020;-68
2023/12/15 06:38:21;;;;;;;26.57;15.50;;;;;;;;;;777257;180;936353;-68
2023/12/15 06:40:47;;;;;;;14.52;9.68;;;;;;;;;;776554;180;919255;-69
2023/12/15 06:43:12;;;;;;;26.07;14.97;;;;;;;;;;769992;177;919308;-62
2023/12/15 06:45:38;;;;;;;27.70;13.67;;;;;;;;;;777031;177;815244;-68
2023/12/15 06:48:04;;;;;;;26.23;15.93;;;;;;;;;;760422;181;922919;-62
2023/12/15 06:50:30;;;;;;;21.90;14.10;;;;;;;;;;773077;180;935497;-62
2023/12/15 06:52:56;;;;;;;30.40;14.60;;;;;;;;;;778026;180;814638;-69
2023/12/15 06:55:22;;;;;;;23.30;16.30;;;;;;;;;;773850;178;931983;-62
2023/12/15 06:57:48;;;;;;;25.67;14.07;;;;;;;;;;771855;181;921404;-62
2023/12/15 07:00:14;;;;;;;23.13;13.43;;;;;;;;;;776448;180;918350;-62
2023/12/15 07:02:40;;;;;;;32.80;18.00;;;;;;;;;;773968;180;919038;-62
2023/12/15 07:05:06;;;;;;;22.37;12.63;;;;;;;;;;769419;180;917349;-68
2023/12/15 07:07:32;;;;;;;21.67;13.53;;;;;;;;;;764977;178;920680;-69
2023/12/15 07:09:58;;;;;;;28.23;14.43;;;;;;;;;;776103;180;816811;-69
2023/12/15 07:12:24;;;;;;;22.97;13.10;;;;;;;;;;772517;180;914398;-68
2023/12/15 07:14:50;;;;;;;24.23;13.20;;;;;;;;;;767434;180;844532;-68
2023/12/15 07:17:15;;;;;;;22.93;11.40;;;;;;;;;;777886;180;912653;-69
2023/12/15 07:19:41;;;;;;;27.90;14.83;;;;;;;;;;773658;181;919056;-62
2023/12/15 07:22:07;;;;;;;25.63;15.67;;;;;;;;;;776316;177;918599;-68
2023/12/15 07:24:34;;;;;;;28.53;16.20;;;;;;;;;;779120;180;821847;-63
2023/12/15 07:26:59;;;;;;;31.50;17.00;;;;;;;;;;770232;181;920375;-62
2023/12/15 07:29:25;;;;;;;24.27;12.63;;;;;;;;;;767579;180;920537;-69
2023/12/15 07:31:51;;;;;;;26.73;15.93;;;;;;;;;;772103;178;855264;-68
2023/12/15 07:34:17;;;;;;;21.30;10.30;;;;;;;;;;773950;179;823176;-69
2023/12/15 07:36:42;;;;;;;29.40;15.10;;;;;;;;;;769448;180;919172;-70
2023/12/15 07:39:09;;;;;;;25.67;15.33;;;;;;;;;;774667;178;909062;-62
2023/12/15 07:41:34;;;;;;;34.77;16.30;;;;;;;;;;780397;178;887397;-68
2023/12/15 07:44:00;;;;;;;25.83;16.40;;;;;;;;;;777793;177;805014;-69
2023/12/15 07:46:26;;;;;;;30.90;19.87;;;;;;;;;;772828;180;916339;-69
2023/12/15 07:48:52;;;;;;;28.87;15.20;;;;;;;;;;778188;180;920460;-62
2023/12/15 07:51:18;;;;;;;27.17;14.43;;;;;;;;;;775118;181;815520;-69
2023/12/15 07:53:46;;;;;;;32.77;18.87;;;;;;;;;;772516;180;811704;-70
2023/12/15 07:56:10;;;;;;;34.00;19.37;;;;;;;;;;777971;180;921422;-70
2023/12/15 07:58:36;;;;;;;35.00;18.97;;;;;;;;;;771216;180;816170;-69
2023/12/15 08:01:02;;;;;;;15.43;9.87;;;;;;;;;;775542;180;814309;-62
2023/12/15 08:03:27;;;;;;;37.80;21.37;;;;;;;;;;772387;180;1020291;-69
2023/12/15 08:05:53;;;;;;;26.47;17.67;;;;;;;;;;777633;180;919191;-62
2023/12/15 08:08:19;;;;;;;22.42;12.93;;;;;;;;;;772999;180;919961;-62
2023/12/15 08:10:45;;;;;;;25.53;14.70;;;;;;;;;;770658;179;916591;-70
2023/12/15 08:13:13;;;;;;;22.77;14.30;;;;;;;;;;777014;180;913261;-69
2023/12/15 08:15:37;;;;;;;22.30;12.27;;;;;;;;;;772807;177;915236;-62
2023/12/15 08:18:02;;;;;;;28.97;17.30;;;;;;;;;;769126;180;1015765;-70
2023/12/15 08:20:28;;;;;;;26.17;15.40;;;;;;;;;;776946;180;919720;-62
2023/12/15 08:22:54;;;;;;;24.10;15.30;;;;;;;;;;771566;180;919975;-62
2023/12/15 08:25:20;;;;;;;27.40;15.70;;;;;;;;;;771110;180;1044240;-68
2023/12/15 08:27:46;;;;;;;30.00;15.70;;;;;;;;;;770981;180;1021206;-62
2023/12/15 08:30:12;;;;;;;55.47;27.20;;;;;;;;;;771823;180;875061;-70
2023/12/15 08:32:38;;;;;;;24.90;15.67;;;;;;;;;;770241;180;814614;-69
2023/12/15 08:35:04;;;;;;;40.72;25.37;;;;;;;;;;770876;181;917171;-70
2023/12/15 08:37:30;;;;;;;29.93;17.53;;;;;;;;;;777388;178;891317;-69
2023/12/15 08:39:56;;;;;;;56.03;24.50;;;;;;;;;;771951;180;919689;-62
2023/12/15 08:42:21;;;;;;;35.63;19.50;;;;;;;;;;771085;180;913627;-69
2023/12/15 08:44:47;;;;;;;32.60;16.83;;;;;;;;;;777235;179;918985;-62
2023/12/15 08:47:13;;;;;;;27.33;15.70;;;;;;;;;;772500;180;818586;-66
2023/12/15 08:49:39;;;;;;;33.37;19.03;;;;;;;;;;771541;180;920784;-69
2023/12/15 08:52:05;;;;;;;25.20;12.63;;;;;;;;;;777675;179;892169;-69
2023/12/15 08:54:31;;;;;;;27.53;15.80;;;;;;;;;;775097;177;915191;-62
2023/12/15 08:56:57;;;;;;;25.80;16.43;;;;;;;;;;773883;180;914559;-68
2023/12/15 08:59:23;;;;;;;29.63;17.00;;;;;;;;;;774597;177;914753;-69
2023/12/15 09:01:48;;;;;;;30.37;17.83;;;;;;;;;;778161;180;916825;-69
2023/12/15 09:04:14;;;;;;;24.27;14.47;;;;;;;;;;773356;178;918498;-62
2023/12/15 09:06:41;;;;;;;29.20;15.43;;;;;;;;;;772592;180;926240;-70
2023/12/15 09:09:07;;;;;;;26.97;13.93;;;;;;;;;;779157;180;889135;-62
2023/12/15 09:11:32;;;;;;;24.20;14.20;;;;;;;;;;772315;178;911932;-62
2023/12/15 09:14:00;;;;;;;74.77;36.50;;;;;;;;;;763471;179;918637;-69
2023/12/15 09:16:23;;;;;;;40.90;22.40;;;;;;;;;;767560;181;816362;-69
2023/12/15 09:18:49;;;;;;;39.47;21.70;;;;;;;;;;773680;180;815602;-62
2023/12/15 09:21:15;;;;;;;35.63;18.40;;;;;;;;;;776130;177;636911;-62
2023/12/15 09:23:41;;;;;;;24.17;15.20;;;;;;;;;;776166;178;623374;-68
2023/12/15 09:26:08;;;;;;;31.63;16.53;;;;;;;;;;770178;180;623486;-62
2023/12/15 09:28:34;;;;;;;27.90;14.37;;;;;;;;;;758448;184;632002;-70
2023/12/15 09:30:59;;;;;;;25.50;15.80;;;;;;;;;;741277;188;635695;-62
2023/12/15 09:33:25;;;;;;;21.73;12.77;;;;;;;;;;754729;184;811970;-62
2023/12/15 09:35:53;;;;;;;23.67;13.35;;;;;;;;;;753734;185;792101;-69
2023/12/15 09:38:17;;;;;;;20.37;12.67;;;;;;;;;;777261;177;624306;-62
2023/12/15 09:40:45;;;;;;;22.97;14.00;;;;;;;;;;779233;180;633700;-69
2023/12/15 09:43:09;;;;;;;28.20;14.57;;;;;;;;;;773037;180;653090;-62
2023/12/15 09:45:35;;;;;;;68.77;31.87;;;;;;;;;;774824;177;614343;-62
2023/12/15 09:48:00;;;;;;;33.47;14.50;;;;;;;;;;779260;178;622882;-70
2023/12/15 09:50:26;;;;;;;24.80;13.73;;;;;;;;;;772888;180;779592;-69
2023/12/15 09:52:52;;;;;;;18.00;10.83;;;;;;;;;;769734;177;847647;-69
2023/12/15 09:55:18;;;;;;;28.70;16.20;;;;;;;;;;759838;181;932916;-68
2023/12/15 09:57:44;;;;;;;26.37;13.97;;;;;;;;;;777834;180;884039;-62
2023/12/15 10:00:10;;;;;;;23.07;12.40;;;;;;;;;;770984;180;919448;-64
2023/12/15 10:02:36;;;;;;;28.97;18.30;;;;;;;;;;773126;177;917312;-69
2023/12/15 10:05:02;;;;;;;19.13;11.67;;;;;;;;;;778615;177;916729;-61
2023/12/15 10:07:28;;;;;;;32.30;16.97;;;;;;;;;;773513;180;919267;-69
2023/12/15 10:09:53;;;;;;;22.37;13.50;;;;;;;;;;779148;177;812860;-69
2023/12/15 10:12:20;;;;;;;21.03;11.87;;;;;;;;;;765086;179;848892;-62
2023/12/15 10:14:46;;;;;;;29.40;19.20;;;;;;;;;;771252;180;911710;-62
2023/12/15 10:17:12;;;;;;;32.40;18.37;;;;;;;;;;773337;180;816473;-70
2023/12/15 10:19:37;;;;;;;29.47;15.00;;;;;;;;;;771215;177;917630;-68
2023/12/15 10:22:03;;;;;;;30.83;16.70;;;;;;;;;;778272;180;818057;-69
2023/12/15 10:24:29;;;;;;;30.43;16.27;;;;;;;;;;761361;181;920090;-68
2023/12/15 10:26:55;;;;;;;29.57;21.00;;;;;;;;;;769949;181;818181;-62
2023/12/15 10:29:21;;;;;;;24.90;16.23;;;;;;;;;;777289;180;914526;-63
2023/12/15 10:31:49;;;;;;;34.33;19.30;;;;;;;;;;773819;180;941965;-62
2023/12/15 10:34:14;;;;;;;20.60;13.93;;;;;;;;;;772995;180;919679;-61
2023/12/15 10:36:44;;;;;;;29.87;17.47;;;;;;;;;;778304;180;810432;-68
2023/12/15 10:39:06;;;;;;;43.73;22.93;;;;;;;;;;772134;178;892584;-70
2023/12/15 10:41:31;;;;;;;36.60;21.00;;;;;;;;;;772462;180;849418;-62
2023/12/15 10:43:59;;;;;;;25.00;15.10;;;;;;;;;;774369;180;911056;-68
2023/12/15 10:46:25;;;;;;;26.07;15.47;;;;;;;;;;768323;180;977682;-69
2023/12/15 10:48:51;;;;;;;27.07;15.50;;;;;;;;;;763017;179;919163;-69
2023/12/15 10:51:16;;;;;;;19.30;12.65;;;;;;;;;;769600;180;923786;-69
2023/12/15 10:53:42;;;;;;;18.60;12.13;;;;;;;;;;777107;180;817015;-70
2023/12/15 10:56:08;;;;;;;18.40;11.50;;;;;;;;;;773379;177;920869;-62
2023/12/15 10:58:34;;;;;;;22.00;12.87;;;;;;;;;;771067;181;919307;-69
2023/12/15 11:01:00;;;;;;;17.23;12.40;;;;;;;;;;778725;180;919350;-69
2023/12/15 11:03:26;;;;;;;19.50;11.27;;;;;;;;;;774044;179;886447;-69
2023/12/15 11:05:51;;;;;;;22.07;11.83;;;;;;;;;;772577;177;818315;-68
2023/12/15 11:08:17;;;;;;;23.20;12.73;;;;;;;;;;774095;180;915771;-67
2023/12/15 11:10:43;;;;;;;20.80;11.90;;;;;;;;;;767930;180;861134;-69
2023/12/15 11:13:27;;;;;;;17.73;10.73;;;;;;;;;;768426;180;918571;-69
2023/12/15 11:15:53;;;;;;;23.33;12.20;;;;;;;;;;767812;179;917751;-69
2023/12/15 11:18:18;;;;;;;19.73;12.25;;;;;;;;;;759690;181;919170;-63
2023/12/15 11:20:47;;;;;;;30.30;13.67;;;;;;;;;;777880;180;923518;-63
2023/12/15 11:23:10;;;;;;;42.83;24.20;;;;;;;;;;773386;180;846144;-70
2023/12/15 11:25:37;;;;;;;17.50;11.30;;;;;;;;;;772786;180;938056;-62
2023/12/15 11:28:08;;;;;;;39.23;21.70;;;;;;;;;;776534;180;916772;-62
2023/12/15 11:30:37;;;;;;;24.40;12.73;;;;;;;;;;777342;180;917273;-70
2023/12/15 11:33:02;;;;;;;24.17;12.63;;;;;;;;;;775858;180;919876;-70
2023/12/15 11:35:29;;;;;;;18.43;11.17;;;;;;;;;;770965;180;918243;-63
2023/12/15 11:37:54;;;;;;;18.93;11.10;;;;;;;;;;776247;178;917270;-62
2023/12/15 11:40:20;;;;;;;25.60;13.98;;;;;;;;;;772664;180;926383;-69
2023/12/15 11:42:50;;;;;;;24.40;13.50;;;;;;;;;;774400;180;866477;-73
2023/12/15 11:45:12;;;;;;;22.20;12.90;;;;;;;;;;766464;180;918591;-62
2023/12/15 11:47:38;;;;;;;26.80;11.07;;;;;;;;;;769488;178;918762;-62
2023/12/15 11:50:04;;;;;;;22.03;12.67;;;;;;;;;;772373;180;919301;-63
2023/12/15 11:52:30;;;;;;;25.90;14.30;;;;;;;;;;772087;178;921821;-62
2023/12/15 11:54:56;;;;;;;20.73;12.10;;;;;;;;;;769867;180;818440;-63
2023/12/15 11:57:22;;;;;;;21.13;11.33;;;;;;;;;;770458;180;918641;-71
2023/12/15 11:59:48;;;;;;;20.97;11.77;;;;;;;;;;772056;180;903203;-69
2023/12/15 12:02:14;;;;;;;20.30;12.60;;;;;;;;;;778870;180;817761;-71
2023/12/15 12:04:39;;;;;;;19.07;12.00;;;;;;;;;;774497;178;804066;-63
2023/12/15 12:07:05;;;;;;;22.97;10.87;;;;;;;;;;772678;180;828135;-62
2023/12/15 12:09:31;;;;;;;46.50;25.60;;;;;;;;;;776963;180;755601;-62
2023/12/15 12:11:57;;;;;;;21.93;12.90;;;;;;;;;;772558;177;921761;-62
2023/12/15 12:14:23;;;;;;;20.17;11.60;;;;;;;;;;764622;180;925216;-62
2023/12/15 12:16:49;;;;;;;18.75;10.20;;;;;;;;;;763050;181;927751;-67
2023/12/15 12:19:15;;;;;;;17.30;10.67;;;;;;;;;;760634;183;849336;-69
2023/12/15 12:21:41;;;;;;;19.10;11.07;;;;;;;;;;757650;184;914996;-71
2023/12/15 12:24:07;;;;;;;17.40;10.63;;;;;;;;;;750604;183;913654;-71
2023/12/15 12:26:32;;;;;;;21.10;11.60;;;;;;;;;;758014;182;913784;-69
2023/12/15 12:28:59;;;;;;;17.30;10.47;;;;;;;;;;769050;177;917837;-69
2023/12/15 12:31:25;;;;;;;17.80;10.40;;;;;;;;;;758311;181;919676;-62
2023/12/15 12:33:50;;;;;;;24.67;12.50;;;;;;;;;;779798;180;816724;-69
2023/12/15 12:36:17;;;;;;;27.87;12.37;;;;;;;;;;776944;179;819027;-62
2023/12/15 12:38:42;;;;;;;17.83;11.07;;;;;;;;;;772787;177;922096;-69
2023/12/15 12:41:08;;;;;;;20.63;10.63;;;;;;;;;;777449;180;919681;-62
2023/12/15 12:43:33;;;;;;;13.80;9.03;;;;;;;;;;773209;178;915958;-64
2023/12/15 12:45:59;;;;;;;16.60;10.30;;;;;;;;;;771960;179;919604;-64
2023/12/15 12:48:25;;;;;;;20.60;10.50;;;;;;;;;;776182;180;712093;-70
2023/12/15 12:50:51;;;;;;;16.30;8.83;;;;;;;;;;781296;179;630029;-69
2023/12/15 12:53:17;;;;;;;20.77;12.47;;;;;;;;;;776182;178;631484;-62
2023/12/15 12:55:44;;;;;;;18.67;10.53;;;;;;;;;;774430;178;814846;-62
2023/12/15 12:58:09;;;;;;;20.33;11.50;;;;;;;;;;777454;180;836234;-69
2023/12/15 13:00:35;;;;;;;18.60;12.03;;;;;;;;;;765215;179;899333;-69
2023/12/15 13:03:01;;;;;;;18.30;10.50;;;;;;;;;;766134;181;921430;-69
2023/12/15 13:05:27;;;;;;;18.03;10.40;;;;;;;;;;776645;177;768701;-62
2023/12/15 13:07:53;;;;;;;20.15;10.77;;;;;;;;;;771517;180;919192;-70
2023/12/15 13:10:18;;;;;;;17.73;10.90;;;;;;;;;;771660;181;880708;-69
2023/12/15 13:12:45;;;;;;;19.40;10.77;;;;;;;;;;771408;180;916453;-62
2023/12/15 13:15:11;;;;;;;14.20;9.20;;;;;;;;;;769573;180;915516;-70
2023/12/15 13:17:36;;;;;;;15.47;9.73;;;;;;;;;;771330;178;808585;-62
2023/12/15 13:20:02;;;;;;;17.50;10.80;;;;;;;;;;771503;178;914532;-69
2023/12/15 13:22:28;;;;;;;22.02;11.60;;;;;;;;;;776076;180;918398;-69
2023/12/15 13:24:54;;;;;;;18.73;10.90;;;;;;;;;;764853;181;819855;-62
2023/12/15 13:27:20;;;;;;;16.50;10.07;;;;;;;;;;765892;177;915774;-69
2023/12/15 13:29:46;;;;;;;18.60;11.23;;;;;;;;;;776034;180;818044;-70
2023/12/15 13:32:13;;;;;;;16.20;10.80;;;;;;;;;;772120;179;918295;-62
2023/12/15 13:34:37;;;;;;;16.02;10.23;;;;;;;;;;774246;180;818497;-70
2023/12/15 13:37:04;;;;;;;17.45;11.02;;;;;;;;;;776504;177;919342;-68
2023/12/15 13:39:30;;;;;;;18.93;11.23;;;;;;;;;;774423;180;916314;-62
2023/12/15 13:41:55;;;;;;;18.50;11.20;;;;;;;;;;768980;178;1020900;-62
2023/12/15 13:44:21;;;;;;;18.40;11.97;;;;;;;;;;774072;177;924938;-62
2023/12/15 13:46:52;;;;;;;21.20;12.23;;;;;;;;;;777707;180;939110;-69
2023/12/15 13:49:15;;;;;;;18.33;10.07;;;;;;;;;;773600;180;919137;-62
2023/12/15 13:51:39;;;;;;;17.47;10.60;;;;;;;;;;774483;177;919027;-68
2023/12/15 13:54:05;;;;;;;17.53;9.93;;;;;;;;;;776093;180;1018057;-62
2023/12/15 13:56:30;;;;;;;17.80;10.50;;;;;;;;;;772503;180;922884;-70
2023/12/15 13:58:56;;;;;;;19.33;11.10;;;;;;;;;;773136;180;895373;-64